sensor_id;sensor_type;location;lat;lon;timestamp;P1;durP1;ratioP1;P2;durP2;ratioP2
21110;SDS011;10713;51.912;4.494;2023-02-15T00:01:39;106.97;;;46.67;;
21110;SDS011;10713;51.912;4.494;2023-02-15T00:04:05;122.05;;;52.05;;
21110;SDS011;10713;51.912;4.494;2023-02-15T00:06:31;135.27;;;53.20;;
21110;SDS011;10713;51.912;4.494;2023-02-15T00:08:57;119.63;;;51.85;;
21110;SDS011;10713;51.912;4.494;2023-02-15T00:11:23;122.07;;;53.90;;
21110;SDS011;10713;51.912;4.494;2023-02-15T00:14:08;122.32;;;51.90;;
21110;SDS011;10713;51.912;4.494;2023-02-15T00:16:41;124.60;;;52.25;;
21110;SDS011;10713;51.912;4.494;2023-02-15T00:19:08;118.28;;;49.33;;
21110;SDS011;10713;51.912;4.494;2023-02-15T00:21:35;119.72;;;51.75;;
21110;SDS011;10713;51.912;4.494;2023-02-15T00:24:02;120.63;;;51.63;;
21110;SDS011;10713;51.912;4.494;2023-02-15T00:26:30;122.40;;;51.22;;
21110;SDS011;10713;51.912;4.494;2023-02-15T00:28:56;115.75;;;48.83;;
21110;SDS011;10713;51.912;4.494;2023-02-15T00:31:24;121.13;;;51.40;;
21110;SDS011;10713;51.912;4.494;2023-02-15T00:33:49;121.60;;;53.08;;
21110;SDS011;10713;51.912;4.494;2023-02-15T00:36:15;123.53;;;52.35;;
21110;SDS011;10713;51.912;4.494;2023-02-15T00:38:40;134.82;;;52.80;;
21110;SDS011;10713;51.912;4.494;2023-02-15T00:41:06;121.70;;;52.08;;
21110;SDS011;10713;51.912;4.494;2023-02-15T00:43:33;124.47;;;51.88;;
21110;SDS011;10713;51.912;4.494;2023-02-15T00:45:59;110.15;;;48.45;;
21110;SDS011;10713;51.912;4.494;2023-02-15T00:48:25;120.20;;;51.28;;
21110;SDS011;10713;51.912;4.494;2023-02-15T00:50:52;125.05;;;51.95;;
21110;SDS011;10713;51.912;4.494;2023-02-15T00:53:20;126.75;;;52.53;;
21110;SDS011;10713;51.912;4.494;2023-02-15T00:55:46;117.93;;;50.97;;
21110;SDS011;10713;51.912;4.494;2023-02-15T00:58:12;114.65;;;51.60;;
21110;SDS011;10713;51.912;4.494;2023-02-15T01:00:38;127.35;;;52.60;;
21110;SDS011;10713;51.912;4.494;2023-02-15T01:03:06;125.95;;;52.47;;
21110;SDS011;10713;51.912;4.494;2023-02-15T01:05:31;121.70;;;51.83;;
21110;SDS011;10713;51.912;4.494;2023-02-15T01:07:57;120.47;;;50.53;;
21110;SDS011;10713;51.912;4.494;2023-02-15T01:10:23;124.28;;;50.67;;
21110;SDS011;10713;51.912;4.494;2023-02-15T01:12:49;127.63;;;51.15;;
21110;SDS011;10713;51.912;4.494;2023-02-15T01:15:15;126.15;;;52.45;;
21110;SDS011;10713;51.912;4.494;2023-02-15T01:17:40;121.43;;;52.45;;
21110;SDS011;10713;51.912;4.494;2023-02-15T01:20:06;115.97;;;49.53;;
21110;SDS011;10713;51.912;4.494;2023-02-15T01:22:32;125.28;;;50.83;;
21110;SDS011;10713;51.912;4.494;2023-02-15T01:24:58;115.00;;;50.85;;
21110;SDS011;10713;51.912;4.494;2023-02-15T01:27:23;129.27;;;53.15;;
21110;SDS011;10713;51.912;4.494;2023-02-15T01:29:48;138.95;;;55.90;;
21110;SDS011;10713;51.912;4.494;2023-02-15T01:32:13;128.35;;;52.47;;
21110;SDS011;10713;51.912;4.494;2023-02-15T01:34:39;133.10;;;55.53;;
21110;SDS011;10713;51.912;4.494;2023-02-15T01:37:04;136.25;;;56.60;;
21110;SDS011;10713;51.912;4.494;2023-02-15T01:39:29;125.20;;;54.65;;
21110;SDS011;10713;51.912;4.494;2023-02-15T01:41:55;129.50;;;54.38;;
21110;SDS011;10713;51.912;4.494;2023-02-15T01:47:08;125.68;;;50.92;;
21110;SDS011;10713;51.912;4.494;2023-02-15T01:49:37;131.55;;;54.47;;
21110;SDS011;10713;51.912;4.494;2023-02-15T01:52:06;133.85;;;55.75;;
21110;SDS011;10713;51.912;4.494;2023-02-15T01:54:34;128.10;;;53.42;;
21110;SDS011;10713;51.912;4.494;2023-02-15T01:57:10;133.02;;;54.33;;
21110;SDS011;10713;51.912;4.494;2023-02-15T01:59:41;130.07;;;54.42;;
21110;SDS011;10713;51.912;4.494;2023-02-15T02:02:10;133.55;;;54.78;;
21110;SDS011;10713;51.912;4.494;2023-02-15T02:04:48;137.25;;;53.78;;
21110;SDS011;10713;51.912;4.494;2023-02-15T02:07:20;140.85;;;56.42;;
21110;SDS011;10713;51.912;4.494;2023-02-15T02:09:49;139.98;;;56.13;;
21110;SDS011;10713;51.912;4.494;2023-02-15T02:12:18;134.02;;;54.72;;
21110;SDS011;10713;51.912;4.494;2023-02-15T02:14:45;142.27;;;56.75;;
21110;SDS011;10713;51.912;4.494;2023-02-15T02:17:16;137.15;;;58.65;;
21110;SDS011;10713;51.912;4.494;2023-02-15T02:27:44;142.45;;;57.30;;
21110;SDS011;10713;51.912;4.494;2023-02-15T02:39:42;144.60;;;57.70;;
21110;SDS011;10713;51.912;4.494;2023-02-15T02:42:38;136.38;;;53.45;;
21110;SDS011;10713;51.912;4.494;2023-02-15T02:48:16;131.35;;;53.33;;
21110;SDS011;10713;51.912;4.494;2023-02-15T02:50:46;133.93;;;55.15;;
21110;SDS011;10713;51.912;4.494;2023-02-15T02:53:11;130.60;;;53.40;;
21110;SDS011;10713;51.912;4.494;2023-02-15T02:58:13;133.77;;;53.08;;
21110;SDS011;10713;51.912;4.494;2023-02-15T03:00:48;131.05;;;53.72;;
21110;SDS011;10713;51.912;4.494;2023-02-15T03:05:43;128.77;;;52.88;;
21110;SDS011;10713;51.912;4.494;2023-02-15T03:08:12;131.45;;;53.83;;
21110;SDS011;10713;51.912;4.494;2023-02-15T03:10:46;114.10;;;50.63;;
21110;SDS011;10713;51.912;4.494;2023-02-15T03:13:13;127.75;;;52.10;;
21110;SDS011;10713;51.912;4.494;2023-02-15T03:15:39;125.97;;;51.97;;
21110;SDS011;10713;51.912;4.494;2023-02-15T03:18:28;121.15;;;48.17;;
21110;SDS011;10713;51.912;4.494;2023-02-15T03:21:07;121.60;;;50.90;;
21110;SDS011;10713;51.912;4.494;2023-02-15T03:23:46;129.18;;;51.72;;
21110;SDS011;10713;51.912;4.494;2023-02-15T03:26:17;125.43;;;50.75;;
21110;SDS011;10713;51.912;4.494;2023-02-15T03:28:45;113.63;;;49.72;;
21110;SDS011;10713;51.912;4.494;2023-02-15T03:31:13;125.18;;;52.08;;
21110;SDS011;10713;51.912;4.494;2023-02-15T03:33:43;125.60;;;51.88;;
21110;SDS011;10713;51.912;4.494;2023-02-15T03:36:17;129.05;;;50.15;;
21110;SDS011;10713;51.912;4.494;2023-02-15T03:38:48;118.82;;;49.55;;
21110;SDS011;10713;51.912;4.494;2023-02-15T03:41:24;127.43;;;49.00;;
21110;SDS011;10713;51.912;4.494;2023-02-15T03:44:04;118.30;;;48.75;;
21110;SDS011;10713;51.912;4.494;2023-02-15T03:46:37;116.90;;;47.95;;
21110;SDS011;10713;51.912;4.494;2023-02-15T03:49:11;117.00;;;47.78;;
21110;SDS011;10713;51.912;4.494;2023-02-15T03:51:42;118.45;;;47.70;;
21110;SDS011;10713;51.912;4.494;2023-02-15T03:54:22;123.72;;;49.25;;
21110;SDS011;10713;51.912;4.494;2023-02-15T03:57:25;126.70;;;48.13;;
21110;SDS011;10713;51.912;4.494;2023-02-15T04:05:57;111.38;;;46.65;;
21110;SDS011;10713;51.912;4.494;2023-02-15T04:08:22;102.18;;;44.95;;
21110;SDS011;10713;51.912;4.494;2023-02-15T04:11:10;114.05;;;46.75;;
21110;SDS011;10713;51.912;4.494;2023-02-15T04:13:36;107.68;;;43.63;;
21110;SDS011;10713;51.912;4.494;2023-02-15T04:16:01;109.65;;;44.28;;
21110;SDS011;10713;51.912;4.494;2023-02-15T04:18:33;120.20;;;45.75;;
21110;SDS011;10713;51.912;4.494;2023-02-15T04:21:22;109.55;;;45.30;;
21110;SDS011;10713;51.912;4.494;2023-02-15T04:24:07;106.90;;;44.67;;
21110;SDS011;10713;51.912;4.494;2023-02-15T04:26:51;116.00;;;45.85;;
21110;SDS011;10713;51.912;4.494;2023-02-15T04:29:18;108.45;;;45.22;;
21110;SDS011;10713;51.912;4.494;2023-02-15T04:31:47;111.03;;;43.97;;
21110;SDS011;10713;51.912;4.494;2023-02-15T04:34:13;103.85;;;42.30;;
21110;SDS011;10713;51.912;4.494;2023-02-15T04:36:39;102.85;;;41.65;;
21110;SDS011;10713;51.912;4.494;2023-02-15T04:39:05;103.88;;;42.75;;
21110;SDS011;10713;51.912;4.494;2023-02-15T04:41:31;107.32;;;42.72;;
21110;SDS011;10713;51.912;4.494;2023-02-15T04:43:57;108.57;;;42.10;;
21110;SDS011;10713;51.912;4.494;2023-02-15T04:46:24;110.57;;;44.80;;
21110;SDS011;10713;51.912;4.494;2023-02-15T04:48:50;104.60;;;44.97;;
21110;SDS011;10713;51.912;4.494;2023-02-15T04:51:15;101.90;;;42.80;;
21110;SDS011;10713;51.912;4.494;2023-02-15T04:53:41;112.10;;;45.63;;
21110;SDS011;10713;51.912;4.494;2023-02-15T04:56:06;111.50;;;46.15;;
21110;SDS011;10713;51.912;4.494;2023-02-15T04:58:31;117.22;;;44.38;;
21110;SDS011;10713;51.912;4.494;2023-02-15T05:00:57;113.00;;;44.50;;
21110;SDS011;10713;51.912;4.494;2023-02-15T05:03:23;116.05;;;46.58;;
21110;SDS011;10713;51.912;4.494;2023-02-15T05:05:48;113.18;;;43.33;;
21110;SDS011;10713;51.912;4.494;2023-02-15T05:08:14;108.50;;;43.75;;
21110;SDS011;10713;51.912;4.494;2023-02-15T05:10:39;101.80;;;42.90;;
21110;SDS011;10713;51.912;4.494;2023-02-15T05:13:05;114.90;;;43.75;;
21110;SDS011;10713;51.912;4.494;2023-02-15T05:15:30;123.32;;;45.65;;
21110;SDS011;10713;51.912;4.494;2023-02-15T05:17:55;109.05;;;42.45;;
21110;SDS011;10713;51.912;4.494;2023-02-15T05:20:21;105.65;;;45.28;;
21110;SDS011;10713;51.912;4.494;2023-02-15T05:22:46;110.10;;;44.10;;
21110;SDS011;10713;51.912;4.494;2023-02-15T05:25:11;113.00;;;44.05;;
21110;SDS011;10713;51.912;4.494;2023-02-15T05:27:55;104.88;;;43.03;;
21110;SDS011;10713;51.912;4.494;2023-02-15T05:30:39;99.60;;;41.97;;
21110;SDS011;10713;51.912;4.494;2023-02-15T05:33:05;100.70;;;41.63;;
21110;SDS011;10713;51.912;4.494;2023-02-15T05:35:31;99.55;;;42.40;;
21110;SDS011;10713;51.912;4.494;2023-02-15T05:37:57;108.43;;;42.25;;
21110;SDS011;10713;51.912;4.494;2023-02-15T05:40:22;109.07;;;43.92;;
21110;SDS011;10713;51.912;4.494;2023-02-15T05:42:48;100.50;;;41.90;;
21110;SDS011;10713;51.912;4.494;2023-02-15T05:45:13;94.10;;;39.47;;
21110;SDS011;10713;51.912;4.494;2023-02-15T05:47:40;99.90;;;41.33;;
21110;SDS011;10713;51.912;4.494;2023-02-15T05:50:05;106.03;;;43.75;;
21110;SDS011;10713;51.912;4.494;2023-02-15T05:52:31;102.50;;;43.33;;
21110;SDS011;10713;51.912;4.494;2023-02-15T05:54:57;108.55;;;43.72;;
21110;SDS011;10713;51.912;4.494;2023-02-15T05:57:23;113.43;;;44.40;;
21110;SDS011;10713;51.912;4.494;2023-02-15T05:59:48;116.25;;;45.33;;
21110;SDS011;10713;51.912;4.494;2023-02-15T06:02:13;102.05;;;41.92;;
21110;SDS011;10713;51.912;4.494;2023-02-15T06:04:39;112.30;;;43.90;;
21110;SDS011;10713;51.912;4.494;2023-02-15T06:07:04;107.43;;;43.65;;
21110;SDS011;10713;51.912;4.494;2023-02-15T06:09:29;113.68;;;42.90;;
21110;SDS011;10713;51.912;4.494;2023-02-15T06:11:55;106.88;;;42.63;;
21110;SDS011;10713;51.912;4.494;2023-02-15T06:14:20;118.40;;;44.67;;
21110;SDS011;10713;51.912;4.494;2023-02-15T06:16:46;121.22;;;45.08;;
21110;SDS011;10713;51.912;4.494;2023-02-15T06:19:11;109.82;;;44.53;;
21110;SDS011;10713;51.912;4.494;2023-02-15T06:21:36;118.85;;;47.13;;
21110;SDS011;10713;51.912;4.494;2023-02-15T06:24:02;120.90;;;47.80;;
21110;SDS011;10713;51.912;4.494;2023-02-15T06:26:27;114.90;;;46.40;;
21110;SDS011;10713;51.912;4.494;2023-02-15T06:28:53;111.32;;;45.92;;
21110;SDS011;10713;51.912;4.494;2023-02-15T06:31:18;106.07;;;43.28;;
21110;SDS011;10713;51.912;4.494;2023-02-15T06:33:44;82.15;;;33.60;;
21110;SDS011;10713;51.912;4.494;2023-02-15T06:36:09;103.45;;;43.17;;
21110;SDS011;10713;51.912;4.494;2023-02-15T06:38:34;105.80;;;41.38;;
21110;SDS011;10713;51.912;4.494;2023-02-15T06:40:59;109.70;;;41.58;;
21110;SDS011;10713;51.912;4.494;2023-02-15T06:43:25;106.07;;;41.30;;
21110;SDS011;10713;51.912;4.494;2023-02-15T06:45:50;115.10;;;45.90;;
21110;SDS011;10713;51.912;4.494;2023-02-15T06:48:16;110.95;;;44.78;;
21110;SDS011;10713;51.912;4.494;2023-02-15T06:50:41;108.82;;;43.28;;
21110;SDS011;10713;51.912;4.494;2023-02-15T06:53:06;108.40;;;43.63;;
21110;SDS011;10713;51.912;4.494;2023-02-15T06:55:32;114.65;;;44.90;;
21110;SDS011;10713;51.912;4.494;2023-02-15T06:57:57;107.35;;;41.30;;
21110;SDS011;10713;51.912;4.494;2023-02-15T07:00:23;108.57;;;42.33;;
21110;SDS011;10713;51.912;4.494;2023-02-15T07:02:54;108.25;;;43.58;;
21110;SDS011;10713;51.912;4.494;2023-02-15T07:05:21;115.13;;;43.65;;
21110;SDS011;10713;51.912;4.494;2023-02-15T07:07:47;97.80;;;40.67;;
21110;SDS011;10713;51.912;4.494;2023-02-15T07:10:12;102.85;;;40.80;;
21110;SDS011;10713;51.912;4.494;2023-02-15T07:12:38;88.55;;;38.97;;
21110;SDS011;10713;51.912;4.494;2023-02-15T07:15:15;94.80;;;39.85;;
21110;SDS011;10713;51.912;4.494;2023-02-15T07:17:43;90.68;;;36.92;;
21110;SDS011;10713;51.912;4.494;2023-02-15T07:20:17;94.93;;;39.20;;
21110;SDS011;10713;51.912;4.494;2023-02-15T07:22:47;92.78;;;38.03;;
21110;SDS011;10713;51.912;4.494;2023-02-15T07:25:13;103.03;;;40.75;;
21110;SDS011;10713;51.912;4.494;2023-02-15T07:27:39;84.20;;;36.83;;
21110;SDS011;10713;51.912;4.494;2023-02-15T07:30:05;85.45;;;37.45;;
21110;SDS011;10713;51.912;4.494;2023-02-15T07:32:33;78.55;;;35.97;;
21110;SDS011;10713;51.912;4.494;2023-02-15T07:34:58;81.70;;;35.72;;
21110;SDS011;10713;51.912;4.494;2023-02-15T07:37:24;87.57;;;36.75;;
21110;SDS011;10713;51.912;4.494;2023-02-15T07:39:50;75.20;;;34.95;;
21110;SDS011;10713;51.912;4.494;2023-02-15T07:42:15;72.90;;;31.40;;
21110;SDS011;10713;51.912;4.494;2023-02-15T07:44:41;79.55;;;35.92;;
21110;SDS011;10713;51.912;4.494;2023-02-15T07:47:06;81.90;;;36.38;;
21110;SDS011;10713;51.912;4.494;2023-02-15T07:49:31;82.65;;;37.47;;
21110;SDS011;10713;51.912;4.494;2023-02-15T07:51:57;82.65;;;36.17;;
21110;SDS011;10713;51.912;4.494;2023-02-15T07:54:22;72.63;;;34.28;;
21110;SDS011;10713;51.912;4.494;2023-02-15T07:56:48;74.03;;;34.03;;
21110;SDS011;10713;51.912;4.494;2023-02-15T07:59:13;82.32;;;34.95;;
21110;SDS011;10713;51.912;4.494;2023-02-15T08:01:39;76.32;;;34.60;;
21110;SDS011;10713;51.912;4.494;2023-02-15T08:04:05;74.50;;;33.00;;
21110;SDS011;10713;51.912;4.494;2023-02-15T08:06:32;76.78;;;35.63;;
21110;SDS011;10713;51.912;4.494;2023-02-15T08:08:59;76.32;;;35.80;;
21110;SDS011;10713;51.912;4.494;2023-02-15T08:11:35;68.32;;;31.88;;
21110;SDS011;10713;51.912;4.494;2023-02-15T08:14:03;71.95;;;32.97;;
21110;SDS011;10713;51.912;4.494;2023-02-15T08:16:39;67.70;;;33.30;;
21110;SDS011;10713;51.912;4.494;2023-02-15T08:22:00;79.20;;;35.50;;
21110;SDS011;10713;51.912;4.494;2023-02-15T08:24:30;78.55;;;36.92;;
21110;SDS011;10713;51.912;4.494;2023-02-15T08:26:57;65.82;;;32.53;;
21110;SDS011;10713;51.912;4.494;2023-02-15T08:29:24;70.05;;;31.67;;
21110;SDS011;10713;51.912;4.494;2023-02-15T08:31:56;73.72;;;34.42;;
21110;SDS011;10713;51.912;4.494;2023-02-15T08:34:27;70.07;;;32.97;;
21110;SDS011;10713;51.912;4.494;2023-02-15T08:36:53;73.68;;;35.45;;
21110;SDS011;10713;51.912;4.494;2023-02-15T08:39:19;69.40;;;32.50;;
21110;SDS011;10713;51.912;4.494;2023-02-15T08:41:45;66.75;;;33.03;;
21110;SDS011;10713;51.912;4.494;2023-02-15T08:44:11;70.85;;;32.80;;
21110;SDS011;10713;51.912;4.494;2023-02-15T08:46:39;64.88;;;32.00;;
21110;SDS011;10713;51.912;4.494;2023-02-15T08:49:06;71.68;;;34.25;;
21110;SDS011;10713;51.912;4.494;2023-02-15T08:51:35;63.45;;;32.65;;
21110;SDS011;10713;51.912;4.494;2023-02-15T08:54:03;68.88;;;32.92;;
21110;SDS011;10713;51.912;4.494;2023-02-15T08:56:34;63.75;;;30.15;;
21110;SDS011;10713;51.912;4.494;2023-02-15T08:59:01;65.18;;;32.22;;
21110;SDS011;10713;51.912;4.494;2023-02-15T09:01:28;68.30;;;33.10;;
21110;SDS011;10713;51.912;4.494;2023-02-15T09:03:56;59.40;;;31.67;;
21110;SDS011;10713;51.912;4.494;2023-02-15T09:06:25;70.43;;;33.63;;
21110;SDS011;10713;51.912;4.494;2023-02-15T09:08:52;58.95;;;30.30;;
21110;SDS011;10713;51.912;4.494;2023-02-15T09:11:19;59.45;;;32.05;;
21110;SDS011;10713;51.912;4.494;2023-02-15T09:13:59;59.22;;;32.30;;
21110;SDS011;10713;51.912;4.494;2023-02-15T09:16:26;58.88;;;31.15;;
21110;SDS011;10713;51.912;4.494;2023-02-15T09:18:53;60.60;;;31.75;;
21110;SDS011;10713;51.912;4.494;2023-02-15T09:21:20;59.92;;;32.17;;
21110;SDS011;10713;51.912;4.494;2023-02-15T09:23:48;59.42;;;32.85;;
21110;SDS011;10713;51.912;4.494;2023-02-15T09:26:19;61.63;;;32.67;;
21110;SDS011;10713;51.912;4.494;2023-02-15T09:28:46;61.95;;;33.75;;
21110;SDS011;10713;51.912;4.494;2023-02-15T09:31:15;67.65;;;33.22;;
21110;SDS011;10713;51.912;4.494;2023-02-15T09:33:42;59.92;;;33.50;;
21110;SDS011;10713;51.912;4.494;2023-02-15T09:36:17;61.95;;;32.75;;
21110;SDS011;10713;51.912;4.494;2023-02-15T09:38:43;62.15;;;34.13;;
21110;SDS011;10713;51.912;4.494;2023-02-15T09:41:14;61.10;;;34.20;;
21110;SDS011;10713;51.912;4.494;2023-02-15T09:44:00;64.47;;;34.40;;
21110;SDS011;10713;51.912;4.494;2023-02-15T09:49:26;65.30;;;33.80;;
21110;SDS011;10713;51.912;4.494;2023-02-15T09:57:24;65.07;;;33.40;;
21110;SDS011;10713;51.912;4.494;2023-02-15T10:00:16;70.63;;;35.03;;
21110;SDS011;10713;51.912;4.494;2023-02-15T10:03:04;63.92;;;33.92;;
21110;SDS011;10713;51.912;4.494;2023-02-15T10:28:06;67.72;;;34.25;;
21110;SDS011;10713;51.912;4.494;2023-02-15T10:35:59;64.63;;;33.55;;
21110;SDS011;10713;51.912;4.494;2023-02-15T10:47:27;62.65;;;34.20;;
21110;SDS011;10713;51.912;4.494;2023-02-15T10:53:00;56.58;;;31.63;;
21110;SDS011;10713;51.912;4.494;2023-02-15T11:06:32;67.40;;;35.22;;
21110;SDS011;10713;51.912;4.494;2023-02-15T11:09:01;57.08;;;31.17;;
21110;SDS011;10713;51.912;4.494;2023-02-15T11:11:31;62.83;;;33.45;;
21110;SDS011;10713;51.912;4.494;2023-02-15T11:17:04;62.13;;;31.85;;
21110;SDS011;10713;51.912;4.494;2023-02-15T11:19:35;60.72;;;31.88;;
21110;SDS011;10713;51.912;4.494;2023-02-15T11:22:10;64.07;;;34.78;;
21110;SDS011;10713;51.912;4.494;2023-02-15T11:24:40;64.25;;;34.45;;
21110;SDS011;10713;51.912;4.494;2023-02-15T11:27:28;63.10;;;34.55;;
21110;SDS011;10713;51.912;4.494;2023-02-15T11:30:01;68.43;;;33.97;;
21110;SDS011;10713;51.912;4.494;2023-02-15T11:32:34;63.08;;;33.58;;
21110;SDS011;10713;51.912;4.494;2023-02-15T11:35:05;66.68;;;33.25;;
21110;SDS011;10713;51.912;4.494;2023-02-15T11:37:50;65.47;;;33.83;;
21110;SDS011;10713;51.912;4.494;2023-02-15T11:40:27;69.13;;;34.38;;
21110;SDS011;10713;51.912;4.494;2023-02-15T11:43:00;64.70;;;32.25;;
21110;SDS011;10713;51.912;4.494;2023-02-15T11:45:29;68.68;;;33.35;;
21110;SDS011;10713;51.912;4.494;2023-02-15T11:47:56;71.40;;;34.35;;
21110;SDS011;10713;51.912;4.494;2023-02-15T11:50:24;62.65;;;32.03;;
21110;SDS011;10713;51.912;4.494;2023-02-15T11:52:52;67.28;;;33.40;;
21110;SDS011;10713;51.912;4.494;2023-02-15T11:55:23;68.00;;;34.60;;
21110;SDS011;10713;51.912;4.494;2023-02-15T11:57:51;60.83;;;32.28;;
21110;SDS011;10713;51.912;4.494;2023-02-15T12:03:02;67.18;;;34.20;;
21110;SDS011;10713;51.912;4.494;2023-02-15T12:05:34;57.30;;;29.40;;
21110;SDS011;10713;51.912;4.494;2023-02-15T12:08:02;67.10;;;33.83;;
21110;SDS011;10713;51.912;4.494;2023-02-15T12:10:40;61.03;;;30.60;;
21110;SDS011;10713;51.912;4.494;2023-02-15T12:13:21;64.45;;;32.55;;
21110;SDS011;10713;51.912;4.494;2023-02-15T12:15:51;60.15;;;31.25;;
21110;SDS011;10713;51.912;4.494;2023-02-15T12:21:10;62.63;;;30.88;;
21110;SDS011;10713;51.912;4.494;2023-02-15T12:23:43;56.75;;;28.65;;
21110;SDS011;10713;51.912;4.494;2023-02-15T12:26:13;68.18;;;31.00;;
21110;SDS011;10713;51.912;4.494;2023-02-15T12:28:43;60.78;;;31.67;;
21110;SDS011;10713;51.912;4.494;2023-02-15T12:31:21;79.80;;;32.70;;
21110;SDS011;10713;51.912;4.494;2023-02-15T12:33:53;70.53;;;34.80;;
21110;SDS011;10713;51.912;4.494;2023-02-15T12:36:24;62.15;;;31.80;;
21110;SDS011;10713;51.912;4.494;2023-02-15T12:39:15;66.68;;;31.33;;
21110;SDS011;10713;51.912;4.494;2023-02-15T12:41:45;62.88;;;31.20;;
21110;SDS011;10713;51.912;4.494;2023-02-15T12:44:23;65.25;;;33.58;;
21110;SDS011;10713;51.912;4.494;2023-02-15T12:47:36;70.15;;;34.08;;
21110;SDS011;10713;51.912;4.494;2023-02-15T12:49:44;67.30;;;33.53;;
21110;SDS011;10713;51.912;4.494;2023-02-15T12:52:28;66.80;;;31.85;;
21110;SDS011;10713;51.912;4.494;2023-02-15T12:54:53;67.60;;;32.10;;
21110;SDS011;10713;51.912;4.494;2023-02-15T13:02:35;67.50;;;30.43;;
21110;SDS011;10713;51.912;4.494;2023-02-15T13:07:38;62.60;;;32.17;;
21110;SDS011;10713;51.912;4.494;2023-02-15T13:12:54;61.47;;;31.88;;
21110;SDS011;10713;51.912;4.494;2023-02-15T13:15:44;64.82;;;30.80;;
21110;SDS011;10713;51.912;4.494;2023-02-15T13:18:15;69.60;;;32.42;;
21110;SDS011;10713;51.912;4.494;2023-02-15T13:20:44;66.72;;;33.05;;
21110;SDS011;10713;51.912;4.494;2023-02-15T13:23:24;67.63;;;32.28;;
21110;SDS011;10713;51.912;4.494;2023-02-15T13:25:52;59.28;;;30.50;;
21110;SDS011;10713;51.912;4.494;2023-02-15T13:28:22;58.65;;;30.45;;
21110;SDS011;10713;51.912;4.494;2023-02-15T13:30:50;67.25;;;33.88;;
21110;SDS011;10713;51.912;4.494;2023-02-15T13:33:22;61.58;;;31.25;;
21110;SDS011;10713;51.912;4.494;2023-02-15T13:38:46;62.10;;;31.38;;
21110;SDS011;10713;51.912;4.494;2023-02-15T13:41:25;60.40;;;31.08;;
21110;SDS011;10713;51.912;4.494;2023-02-15T13:47:02;66.47;;;34.53;;
21110;SDS011;10713;51.912;4.494;2023-02-15T13:52:51;70.95;;;34.67;;
21110;SDS011;10713;51.912;4.494;2023-02-15T14:01:09;71.07;;;34.08;;
21110;SDS011;10713;51.912;4.494;2023-02-15T14:03:52;69.95;;;34.88;;
21110;SDS011;10713;51.912;4.494;2023-02-15T14:20:24;64.75;;;33.67;;
21110;SDS011;10713;51.912;4.494;2023-02-15T14:25:54;63.63;;;32.80;;
21110;SDS011;10713;51.912;4.494;2023-02-15T14:28:28;70.82;;;33.63;;
21110;SDS011;10713;51.912;4.494;2023-02-15T14:30:57;66.85;;;32.20;;
21110;SDS011;10713;51.912;4.494;2023-02-15T14:35:59;74.95;;;34.67;;
21110;SDS011;10713;51.912;4.494;2023-02-15T14:39:15;71.82;;;36.28;;
21110;SDS011;10713;51.912;4.494;2023-02-15T14:49:31;72.30;;;34.90;;
21110;SDS011;10713;51.912;4.494;2023-02-15T14:52:02;71.03;;;33.75;;
21110;SDS011;10713;51.912;4.494;2023-02-15T15:01:58;76.50;;;35.15;;
21110;SDS011;10713;51.912;4.494;2023-02-15T15:06:57;72.30;;;36.42;;
21110;SDS011;10713;51.912;4.494;2023-02-15T15:09:33;73.13;;;37.60;;
21110;SDS011;10713;51.912;4.494;2023-02-15T15:12:18;75.97;;;36.33;;
21110;SDS011;10713;51.912;4.494;2023-02-15T15:15:00;67.68;;;34.47;;
21110;SDS011;10713;51.912;4.494;2023-02-15T15:20:01;74.78;;;36.00;;
21110;SDS011;10713;51.912;4.494;2023-02-15T15:22:30;77.40;;;37.05;;
21110;SDS011;10713;51.912;4.494;2023-02-15T15:25:01;75.13;;;35.10;;
21110;SDS011;10713;51.912;4.494;2023-02-15T15:48:40;78.07;;;38.08;;
21110;SDS011;10713;51.912;4.494;2023-02-15T15:51:11;77.72;;;37.28;;
21110;SDS011;10713;51.912;4.494;2023-02-15T15:53:43;77.53;;;37.20;;
21110;SDS011;10713;51.912;4.494;2023-02-15T15:56:21;76.22;;;37.88;;
21110;SDS011;10713;51.912;4.494;2023-02-15T15:58:56;81.10;;;37.97;;
21110;SDS011;10713;51.912;4.494;2023-02-15T16:01:26;79.28;;;37.13;;
21110;SDS011;10713;51.912;4.494;2023-02-15T16:03:54;81.38;;;38.22;;
21110;SDS011;10713;51.912;4.494;2023-02-15T16:09:10;80.72;;;38.13;;
21110;SDS011;10713;51.912;4.494;2023-02-15T16:11:43;73.43;;;36.35;;
21110;SDS011;10713;51.912;4.494;2023-02-15T16:14:11;87.30;;;37.85;;
21110;SDS011;10713;51.912;4.494;2023-02-15T16:16:39;78.15;;;38.03;;
21110;SDS011;10713;51.912;4.494;2023-02-15T16:19:06;83.07;;;38.90;;
21110;SDS011;10713;51.912;4.494;2023-02-15T16:21:43;80.75;;;38.15;;
21110;SDS011;10713;51.912;4.494;2023-02-15T16:24:22;86.05;;;36.60;;
21110;SDS011;10713;51.912;4.494;2023-02-15T16:27:06;84.07;;;36.65;;
21110;SDS011;10713;51.912;4.494;2023-02-15T16:29:39;84.95;;;36.80;;
21110;SDS011;10713;51.912;4.494;2023-02-15T16:32:06;75.50;;;35.08;;
21110;SDS011;10713;51.912;4.494;2023-02-15T16:37:33;70.88;;;34.83;;
21110;SDS011;10713;51.912;4.494;2023-02-15T16:39:59;80.55;;;34.65;;
21110;SDS011;10713;51.912;4.494;2023-02-15T16:42:25;76.13;;;35.15;;
21110;SDS011;10713;51.912;4.494;2023-02-15T16:44:54;75.68;;;35.83;;
21110;SDS011;10713;51.912;4.494;2023-02-15T16:47:27;72.43;;;32.42;;
21110;SDS011;10713;51.912;4.494;2023-02-15T16:49:57;78.53;;;33.75;;
21110;SDS011;10713;51.912;4.494;2023-02-15T16:52:26;67.00;;;32.45;;
21110;SDS011;10713;51.912;4.494;2023-02-15T16:54:58;72.22;;;33.60;;
21110;SDS011;10713;51.912;4.494;2023-02-15T16:57:31;76.30;;;32.03;;
21110;SDS011;10713;51.912;4.494;2023-02-15T17:00:02;73.10;;;33.45;;
21110;SDS011;10713;51.912;4.494;2023-02-15T17:02:33;70.45;;;32.25;;
21110;SDS011;10713;51.912;4.494;2023-02-15T17:05:06;71.07;;;32.55;;
21110;SDS011;10713;51.912;4.494;2023-02-15T17:07:41;74.30;;;32.03;;
21110;SDS011;10713;51.912;4.494;2023-02-15T17:13:12;71.00;;;32.47;;
21110;SDS011;10713;51.912;4.494;2023-02-15T17:18:29;70.40;;;31.77;;
21110;SDS011;10713;51.912;4.494;2023-02-15T17:20:58;75.43;;;31.75;;
21110;SDS011;10713;51.912;4.494;2023-02-15T17:23:37;73.63;;;32.08;;
21110;SDS011;10713;51.912;4.494;2023-02-15T17:28:45;66.30;;;31.70;;
21110;SDS011;10713;51.912;4.494;2023-02-15T17:31:14;69.07;;;31.70;;
21110;SDS011;10713;51.912;4.494;2023-02-15T17:33:42;66.35;;;31.38;;
21110;SDS011;10713;51.912;4.494;2023-02-15T17:41:21;72.95;;;32.85;;
21110;SDS011;10713;51.912;4.494;2023-02-15T17:43:46;69.07;;;32.28;;
21110;SDS011;10713;51.912;4.494;2023-02-15T17:46:12;70.75;;;31.70;;
21110;SDS011;10713;51.912;4.494;2023-02-15T17:48:39;71.53;;;32.85;;
21110;SDS011;10713;51.912;4.494;2023-02-15T17:51:06;74.90;;;33.25;;
21110;SDS011;10713;51.912;4.494;2023-02-15T17:53:36;69.28;;;32.17;;
21110;SDS011;10713;51.912;4.494;2023-02-15T17:56:01;67.28;;;31.75;;
21110;SDS011;10713;51.912;4.494;2023-02-15T17:58:34;66.20;;;30.30;;
21110;SDS011;10713;51.912;4.494;2023-02-15T18:01:00;70.82;;;32.65;;
21110;SDS011;10713;51.912;4.494;2023-02-15T18:03:50;70.05;;;32.22;;